createdAt,value
2022-09-07T00:03:02.891Z,9.60
2022-09-07T00:06:08.308Z,9.88
2022-09-07T00:09:10.818Z,10.60
2022-09-07T00:12:13.654Z,9.10
2022-09-07T00:15:16.667Z,10.57
2022-09-07T00:18:19.684Z,9.90
2022-09-07T00:21:22.418Z,10.68
2022-09-07T00:24:25.405Z,9.70
2022-09-07T00:27:28.004Z,10.32
2022-09-07T00:30:30.886Z,9.88
2022-09-07T00:33:33.400Z,9.88
2022-09-07T00:36:36.235Z,10.18
2022-09-07T00:39:38.898Z,10.73
2022-09-07T00:42:41.767Z,10.35
2022-09-07T00:45:44.240Z,11.07
2022-09-07T00:48:53.373Z,10.75
2022-09-07T00:51:59.412Z,10.23
2022-09-07T00:55:06.741Z,10.97
2022-09-07T00:58:09.557Z,10.18
2022-09-07T01:01:12.895Z,10.80
2022-09-07T01:04:15.713Z,9.68
2022-09-07T01:07:19.147Z,11.20
2022-09-07T01:10:28.104Z,11.20
2022-09-07T01:13:31.247Z,10.30
2022-09-07T01:16:46.018Z,10.88
2022-09-07T01:20:00.598Z,10.55
2022-09-07T01:23:33.637Z,14.68
2022-09-07T01:26:39.374Z,14.27
2022-09-07T01:29:47.720Z,12.60
2022-09-07T01:33:32.023Z,12.40
2022-09-07T01:37:18.084Z,10.63
2022-09-07T01:40:41.211Z,10.98
2022-09-07T01:43:58.842Z,11.43
2022-09-07T01:47:07.003Z,11.82
2022-09-07T01:50:17.657Z,11.27
2022-09-07T01:53:28.298Z,11.65
2022-09-07T01:56:37.562Z,11.65
2022-09-07T01:59:51.928Z,13.77
2022-09-07T02:03:14.391Z,12.27
2022-09-07T02:06:25.420Z,13.32
2022-09-07T02:09:38.507Z,13.85
2022-09-07T02:12:47.517Z,13.48
2022-09-07T02:16:01.561Z,15.30
2022-09-07T02:19:14.239Z,13.80
2022-09-07T02:22:21.356Z,18.50
2022-09-07T02:25:26.975Z,14.75
2022-09-07T02:28:34.509Z,15.77
2022-09-07T02:31:37.316Z,12.77
2022-09-07T02:34:39.893Z,13.18
2022-09-07T02:37:43.962Z,13.85
2022-09-07T02:40:54.673Z,13.68
2022-09-07T02:43:57.987Z,14.48
2022-09-07T02:47:15.635Z,14.23
2022-09-07T02:50:32.939Z,13.80
2022-09-07T02:53:41.285Z,14.35
2022-09-07T02:56:51.979Z,15.02
2022-09-07T03:00:34.524Z,13.68
2022-09-07T03:03:58.275Z,11.97
2022-09-07T03:07:17.770Z,13.05
2022-09-07T03:10:20.861Z,14.00
2022-09-07T03:13:28.499Z,12.10
2022-09-07T03:16:31.300Z,12.80
2022-09-07T03:19:33.794Z,15.67
2022-09-07T03:22:36.619Z,12.82
2022-09-07T03:25:39.165Z,12.55
2022-09-07T03:28:42.274Z,13.80
2022-09-07T03:31:44.935Z,12.88
2022-09-07T03:34:48.612Z,15.13
2022-09-07T03:37:51.215Z,12.80
2022-09-07T03:41:02.390Z,13.75
2022-09-07T03:44:06.016Z,12.15
2022-09-07T03:47:08.820Z,12.52
2022-09-07T03:50:11.404Z,13.83
2022-09-07T03:53:14.195Z,13.45
2022-09-07T03:56:19.474Z,12.98
2022-09-07T03:59:22.235Z,15.90
2022-09-07T04:02:24.839Z,8.73
2022-09-07T04:05:27.687Z,13.07
2022-09-07T04:08:32.575Z,11.90
2022-09-07T04:11:35.858Z,12.63
2022-09-07T04:14:38.326Z,12.98
2022-09-07T04:17:41.121Z,12.50
2022-09-07T04:20:44.269Z,11.37
2022-09-07T04:23:47.457Z,14.90
2022-09-07T04:26:50.010Z,12.43
2022-09-07T04:29:52.802Z,11.43
2022-09-07T04:32:55.349Z,12.13
2022-09-07T04:36:00.924Z,13.77
2022-09-07T04:39:04.893Z,12.05
2022-09-07T04:42:07.745Z,12.45
2022-09-07T04:45:10.609Z,11.38
2022-09-07T04:48:13.402Z,16.20
2022-09-07T04:51:16.338Z,12.80
2022-09-07T04:54:20.108Z,12.23
2022-09-07T04:57:25.905Z,15.70
2022-09-07T05:00:29.013Z,12.02
2022-09-07T05:03:33.058Z,10.95
2022-09-07T05:06:35.903Z,12.07
2022-09-07T05:09:38.514Z,14.23
2022-09-07T05:12:41.287Z,11.63
2022-09-07T05:15:43.935Z,12.50
2022-09-07T05:18:55.439Z,13.55
2022-09-07T05:21:58.540Z,12.07
2022-09-07T05:25:01.310Z,10.27
2022-09-07T05:28:04.261Z,12.32
2022-09-07T05:31:19.451Z,11.15
2022-09-07T05:34:30.940Z,9.48
2022-09-07T05:37:34.281Z,12.80
2022-09-07T05:40:40.539Z,10.88
2022-09-07T05:47:07.139Z,11.93
2022-09-07T05:50:10.757Z,8.85
2022-09-07T05:53:13.307Z,10.07
2022-09-07T05:56:16.396Z,9.68
2022-09-07T05:59:18.924Z,11.73
2022-09-07T06:02:21.882Z,11.65
2022-09-07T06:05:24.893Z,9.82
2022-09-07T06:08:27.498Z,8.40
2022-09-07T06:11:30.383Z,10.00
2022-09-07T06:14:35.696Z,13.40
2022-09-07T06:17:38.619Z,8.90
2022-09-07T06:20:41.122Z,10.02
2022-09-07T06:23:44.676Z,9.27
2022-09-07T06:26:47.253Z,9.40
2022-09-07T06:29:50.044Z,13.50
2022-09-07T06:32:52.903Z,9.38
2022-09-07T06:36:00.513Z,10.52
2022-09-07T06:39:03.100Z,11.87
2022-09-07T06:42:06.501Z,9.27
2022-09-07T06:45:17.024Z,10.30
2022-09-07T06:48:19.909Z,10.32
2022-09-07T06:51:26.764Z,9.10
2022-09-07T06:57:53.423Z,11.45
2022-09-07T07:00:56.671Z,9.82
2022-09-07T07:04:00.014Z,10.68
2022-09-07T07:07:02.784Z,9.27
2022-09-07T07:10:05.873Z,11.43
2022-09-07T07:13:08.887Z,9.80
2022-09-07T07:16:13.351Z,9.38
2022-09-07T07:19:16.636Z,9.65
2022-09-07T07:22:43.074Z,9.88
2022-09-07T07:25:42.315Z,9.30
2022-09-07T07:29:03.070Z,9.23
2022-09-07T07:32:06.776Z,9.85
2022-09-07T07:35:10.180Z,9.35
2022-09-07T07:48:21.682Z,10.23
2022-09-07T07:51:24.934Z,8.65
2022-09-07T07:54:27.379Z,8.20
2022-09-07T07:57:30.467Z,8.63
2022-09-07T08:00:53.046Z,7.70
2022-09-07T08:03:55.860Z,7.75
2022-09-07T08:06:58.332Z,9.10
2022-09-07T08:10:01.180Z,7.65
2022-09-07T08:13:03.981Z,7.87
2022-09-07T08:16:08.074Z,8.02
2022-09-07T08:19:10.593Z,9.63
2022-09-07T08:22:13.392Z,8.88
2022-09-07T08:25:15.920Z,7.28
2022-09-07T08:28:19.756Z,8.43
2022-09-07T08:31:23.210Z,8.48
2022-09-07T08:34:27.187Z,8.30
2022-09-07T08:37:29.970Z,6.60
2022-09-07T08:40:36.514Z,9.38
2022-09-07T08:43:50.089Z,8.30
2022-09-07T08:46:56.748Z,9.02
2022-09-07T08:50:12.022Z,8.02
2022-09-07T08:53:17.032Z,6.78
2022-09-07T08:56:26.084Z,9.27
2022-09-07T08:59:40.132Z,6.87
2022-09-07T09:02:45.530Z,6.80
2022-09-07T09:06:01.704Z,7.20
2022-09-07T09:09:19.384Z,7.90
2022-09-07T09:12:29.183Z,6.65
2022-09-07T09:15:58.919Z,5.80
2022-09-07T09:19:47.342Z,6.72
2022-09-07T09:22:52.253Z,7.70
2022-09-07T09:26:00.149Z,7.03
2022-09-07T09:29:20.929Z,7.32
2022-09-07T09:32:45.474Z,5.37
2022-09-07T09:35:50.970Z,6.85
2022-09-07T09:38:53.828Z,6.03
2022-09-07T09:41:59.091Z,9.35
2022-09-07T09:45:22.044Z,7.17
2022-09-07T09:48:32.862Z,6.07
2022-09-07T09:55:36.392Z,8.15
2022-09-07T10:05:39.663Z,7.43
2022-09-07T10:08:54.878Z,7.05
2022-09-07T10:12:07.254Z,6.20
2022-09-07T10:15:41.324Z,6.00
2022-09-07T10:18:58.761Z,5.05
2022-09-07T10:22:04.789Z,4.67
2022-09-07T10:25:32.540Z,8.15
2022-09-07T10:32:12.749Z,6.03
2022-09-07T10:35:20.683Z,6.20
2022-09-07T10:38:25.089Z,5.57
2022-09-07T10:41:37.323Z,9.82
2022-09-07T10:44:55.749Z,4.47
2022-09-07T10:48:32.464Z,6.62
2022-09-07T10:51:51.166Z,5.13
2022-09-07T10:54:56.501Z,6.80
2022-09-07T11:02:10.270Z,6.07
2022-09-07T11:05:38.517Z,6.70
2022-09-07T11:12:24.909Z,5.60
2022-09-07T11:15:40.313Z,5.05
2022-09-07T11:22:47.232Z,4.43
2022-09-07T11:26:08.871Z,5.20
2022-09-07T11:29:34.940Z,4.63
2022-09-07T11:32:38.748Z,5.35
2022-09-07T11:35:53.829Z,4.55
2022-09-07T11:39:07.782Z,7.62
2022-09-07T11:42:48.803Z,6.62
2022-09-07T11:45:55.386Z,5.73
2022-09-07T11:48:58.946Z,5.53
2022-09-07T11:52:06.160Z,5.65
2022-09-07T11:55:12.763Z,5.43
2022-09-07T11:58:37.979Z,6.78
2022-09-07T12:02:04.052Z,6.67
2022-09-07T12:05:38.423Z,4.30
2022-09-07T12:08:56.018Z,6.22
2022-09-07T12:12:42.188Z,5.18
2022-09-07T12:15:57.881Z,5.10
2022-09-07T12:19:12.919Z,5.13
2022-09-07T12:22:22.526Z,5.07
2022-09-07T12:25:25.903Z,4.60
2022-09-07T12:28:34.261Z,5.78
2022-09-07T12:31:59.166Z,4.80
2022-09-07T12:35:02.385Z,6.30
2022-09-07T12:38:30.815Z,4.97
2022-09-07T12:41:47.432Z,8.10
2022-09-07T12:45:35.819Z,5.53
2022-09-07T12:48:48.745Z,7.45
2022-09-07T12:52:15.121Z,9.47
2022-09-07T12:56:15.138Z,7.35
2022-09-07T12:59:30.871Z,13.15
2022-09-07T13:02:58.632Z,10.07
2022-09-07T13:10:00.354Z,4.67
2022-09-07T13:13:16.790Z,9.68
2022-09-07T13:16:30.714Z,4.90
2022-09-07T13:19:57.033Z,5.97
2022-09-07T13:23:23.817Z,5.07
2022-09-07T13:26:58.548Z,4.50
2022-09-07T13:30:07.280Z,9.85
2022-09-07T13:33:26.012Z,4.78
2022-09-07T13:36:45.684Z,7.87
2022-09-07T13:39:49.724Z,5.20
2022-09-07T13:42:52.717Z,5.40
2022-09-07T13:45:55.565Z,7.12
2022-09-07T13:49:06.958Z,8.80
2022-09-07T13:52:15.682Z,5.78
2022-09-07T13:55:46.588Z,4.97
2022-09-07T13:58:52.125Z,4.77
2022-09-07T14:01:55.812Z,6.07
2022-09-07T14:05:00.579Z,4.20
2022-09-07T14:08:03.426Z,5.85
2022-09-07T14:11:20.782Z,3.92
2022-09-07T14:14:29.567Z,5.20
2022-09-07T14:17:32.338Z,6.80
2022-09-07T14:20:40.552Z,6.00
2022-09-07T14:23:43.240Z,4.50
2022-09-07T14:26:48.257Z,4.35
2022-09-07T14:29:51.173Z,3.67
2022-09-07T14:33:00.763Z,3.87
2022-09-07T14:36:23.343Z,3.42
2022-09-07T14:39:29.821Z,4.72
2022-09-07T14:42:32.670Z,4.13
2022-09-07T14:45:36.221Z,3.90
2022-09-07T14:48:40.556Z,5.47
2022-09-07T14:51:44.647Z,4.87
2022-09-07T14:54:51.483Z,4.68
2022-09-07T14:58:15.902Z,4.30
2022-09-07T15:01:38.151Z,4.73
2022-09-07T15:04:40.871Z,5.22
2022-09-07T15:07:47.961Z,4.10
2022-09-07T15:14:25.288Z,5.12
2022-09-07T15:17:48.172Z,7.03
2022-09-07T15:20:51.243Z,5.32
2022-09-07T15:23:57.109Z,5.95
2022-09-07T15:27:03.509Z,8.38
2022-09-07T15:30:06.847Z,5.18
2022-09-07T15:33:11.475Z,5.17
2022-09-07T15:36:15.842Z,6.45
2022-09-07T15:39:21.265Z,5.62
2022-09-07T15:45:48.117Z,6.73
2022-09-07T15:48:53.678Z,6.43
2022-09-07T15:52:05.098Z,5.53
2022-09-07T15:55:08.846Z,9.32
2022-09-07T15:58:12.552Z,8.52
2022-09-07T16:04:38.788Z,8.23
2022-09-07T16:11:18.537Z,5.87
2022-09-07T16:14:21.466Z,6.28
2022-09-07T16:17:33.991Z,8.05
2022-09-07T16:20:38.863Z,5.87
2022-09-07T16:23:43.964Z,6.45
2022-09-07T16:26:46.412Z,6.72
2022-09-07T16:29:49.262Z,6.75
2022-09-07T16:32:51.830Z,5.67
2022-09-07T16:36:02.926Z,6.20
2022-09-07T16:39:05.395Z,7.18
2022-09-07T16:42:08.948Z,6.85
2022-09-07T16:48:35.790Z,8.63
2022-09-07T16:51:39.696Z,8.40
2022-09-07T16:54:42.856Z,6.55
2022-09-07T17:01:10.281Z,7.50
2022-09-07T17:04:13.208Z,6.90
2022-09-07T17:07:15.905Z,11.13
2022-09-07T17:10:18.392Z,9.50
2022-09-07T17:13:21.109Z,8.00
2022-09-07T17:16:26.445Z,5.87
2022-09-07T17:19:29.770Z,9.60
2022-09-07T17:22:32.636Z,7.67
2022-09-07T17:25:35.385Z,7.97
2022-09-07T17:28:38.664Z,9.35
2022-09-07T17:35:04.539Z,12.33
2022-09-07T17:41:33.887Z,9.77
2022-09-07T17:44:38.422Z,7.68
2022-09-07T17:47:41.040Z,10.25
2022-09-07T17:50:43.764Z,8.57
2022-09-07T17:53:46.332Z,9.40
2022-09-07T17:56:49.109Z,9.45
2022-09-07T18:03:14.375Z,8.68
2022-09-07T18:06:16.804Z,8.50
2022-09-07T18:09:19.972Z,8.50
2022-09-07T18:12:22.760Z,8.82
2022-09-07T18:15:25.534Z,8.00
2022-09-07T18:18:28.473Z,11.05
2022-09-07T18:21:33.420Z,7.67
2022-09-07T18:24:36.951Z,7.63
2022-09-07T18:27:40.446Z,8.23
2022-09-07T18:30:43.097Z,7.78
2022-09-07T18:33:47.458Z,10.40
2022-09-07T18:36:50.304Z,10.80
2022-09-07T18:39:54.363Z,8.37
2022-09-07T18:42:57.541Z,10.30
2022-09-07T18:46:08.507Z,9.80
2022-09-07T18:49:11.129Z,11.02
2022-09-07T18:55:36.267Z,11.87
2022-09-07T18:58:39.254Z,8.57
2022-09-07T19:01:41.889Z,8.90
2022-09-07T19:08:08.589Z,11.57
2022-09-07T19:11:13.495Z,8.80
2022-09-07T19:14:17.488Z,10.98
2022-09-07T19:17:20.380Z,11.65
2022-09-07T19:20:23.002Z,11.20
2022-09-07T19:23:25.701Z,11.80
2022-09-07T19:26:30.205Z,12.43
2022-09-07T19:29:33.157Z,10.77
2022-09-07T19:32:35.690Z,12.85
2022-09-07T19:35:38.527Z,10.68
2022-09-07T19:38:41.088Z,12.13
2022-09-07T19:41:45.238Z,10.33
2022-09-07T19:44:48.017Z,11.52
2022-09-07T19:47:50.738Z,10.05
2022-09-07T19:50:53.500Z,9.60
2022-09-07T19:53:56.225Z,10.27
2022-09-07T19:56:58.817Z,10.47
2022-09-07T20:00:01.692Z,10.88
2022-09-07T20:03:14.190Z,12.75
2022-09-07T20:06:18.292Z,14.32
2022-09-07T20:09:20.749Z,9.57
2022-09-07T20:12:23.475Z,9.50
2022-09-07T20:15:26.302Z,13.00
2022-09-07T20:18:29.036Z,13.85
2022-09-07T20:21:31.499Z,12.65
2022-09-07T20:24:35.230Z,13.33
2022-09-07T20:27:37.635Z,11.13
2022-09-07T20:30:44.077Z,12.40
2022-09-07T20:33:47.854Z,13.40
2022-09-07T20:36:50.966Z,11.73
2022-09-07T20:39:53.436Z,12.17
2022-09-07T20:42:56.225Z,14.53
2022-09-07T20:45:59.673Z,12.93
2022-09-07T20:49:02.396Z,13.07
2022-09-07T20:52:04.837Z,11.57
2022-09-07T20:55:07.993Z,13.73
2022-09-07T20:58:10.540Z,12.63
2022-09-07T21:01:15.205Z,14.00
2022-09-07T21:04:17.803Z,12.20
2022-09-07T21:07:20.485Z,12.45
2022-09-07T21:10:22.900Z,12.83
2022-09-07T21:13:25.591Z,19.37
2022-09-07T21:16:28.845Z,13.13
2022-09-07T21:19:31.596Z,14.98
2022-09-07T21:22:34.091Z,13.73
2022-09-07T21:25:44.039Z,16.00
2022-09-07T21:28:46.480Z,13.23
2022-09-07T21:31:49.653Z,14.23
2022-09-07T21:34:52.119Z,12.52
2022-09-07T21:37:54.811Z,13.52
2022-09-07T21:40:57.251Z,14.00
2022-09-07T21:44:01.943Z,12.93
2022-09-07T21:47:04.571Z,12.77
2022-09-07T21:50:07.774Z,14.52
2022-09-07T21:53:10.874Z,13.98
2022-09-07T21:56:14.373Z,12.90
2022-09-07T21:59:16.873Z,12.60
2022-09-07T22:02:19.673Z,15.27
2022-09-07T22:05:22.408Z,15.68
2022-09-07T22:08:24.815Z,13.02
2022-09-07T22:11:29.115Z,13.53
2022-09-07T22:14:31.612Z,12.17
2022-09-07T22:17:34.513Z,13.88
2022-09-07T22:20:36.959Z,12.32
2022-09-07T22:23:42.675Z,12.52
2022-09-07T22:26:46.397Z,13.33
2022-09-07T22:29:49.102Z,11.80
2022-09-07T22:32:51.858Z,11.57
2022-09-07T22:35:54.535Z,12.37
2022-09-07T22:38:59.297Z,13.27
2022-09-07T22:42:01.981Z,12.43
2022-09-07T22:45:05.885Z,14.10
2022-09-07T22:48:08.734Z,11.80
2022-09-07T22:51:11.714Z,12.32
2022-09-07T22:54:14.449Z,12.65
2022-09-07T22:57:16.928Z,12.83
2022-09-07T23:00:20.073Z,12.87
2022-09-07T23:03:22.539Z,11.30
2022-09-07T23:06:30.660Z,13.48
2022-09-07T23:09:33.156Z,15.45
2022-09-07T23:12:35.888Z,13.60
2022-09-07T23:15:38.806Z,12.53
2022-09-07T23:18:41.645Z,12.77
2022-09-07T23:21:44.119Z,14.63
2022-09-07T23:24:46.847Z,14.02
2022-09-07T23:27:49.281Z,13.93
2022-09-07T23:30:52.013Z,14.60
2022-09-07T23:33:55.666Z,16.02
2022-09-07T23:36:58.377Z,15.27
2022-09-07T23:40:00.855Z,17.58
2022-09-07T23:43:03.570Z,15.80
2022-09-07T23:46:06.129Z,16.60
2022-09-07T23:49:08.916Z,17.87
2022-09-07T23:52:11.309Z,17.40
2022-09-07T23:55:13.999Z,16.10
2022-09-07T23:58:16.570Z,21.07
